Time;durP1;ratioP1;P1;durP2;ratioP2;P2;SDS_P1;SDS_P2;PMS_P1;PMS_P2;Temp;Humidity;BMP_temperature;BMP_pressure;BME280_temperature;BME280_humidity;BME280_pressure;Samples;Min_cycle;Max_cycle;Signal;HPM_P1;HPM_P2
2023/06/04 00:01:41;;;;;;;8.10;5.60;;;;;;;6.77;63.10;97616.02;108785;1251;94373;-73
2023/06/04 00:04:09;;;;;;;9.30;5.70;;;;;;;6.75;63.23;97617.39;108781;1253;101216;-73
2023/06/04 00:06:37;;;;;;;9.10;5.70;;;;;;;6.73;63.16;97617.40;108746;1254;101396;-76
2023/06/04 00:09:05;;;;;;;8.00;5.80;;;;;;;6.68;63.19;97618.75;108755;1252;99016;-73
2023/06/04 00:11:35;;;;;;;12.90;5.20;;;;;;;6.62;63.32;97620.89;108736;1253;94365;-75
2023/06/04 00:14:03;;;;;;;9.80;6.20;;;;;;;6.58;63.37;97621.16;108769;1254;94697;-76
2023/06/04 00:16:31;;;;;;;11.40;6.90;;;;;;;6.57;63.39;97620.66;108536;1252;103402;-73
2023/06/04 00:18:59;;;;;;;13.10;8.10;;;;;;;6.56;63.57;97616.45;108748;1252;101056;-73
2023/06/04 00:21:28;;;;;;;11.30;7.20;;;;;;;6.56;63.66;97619.13;108731;1254;99986;-73
2023/06/04 00:23:56;;;;;;;12.10;7.20;;;;;;;6.54;63.69;97619.67;108380;1254;94642;-75
2023/06/04 00:26:24;;;;;;;10.20;7.20;;;;;;;6.52;63.60;97619.96;108720;1253;94593;-75
2023/06/04 00:28:53;;;;;;;10.00;6.90;;;;;;;6.47;63.49;97619.64;108326;1255;101267;-73
2023/06/04 00:31:21;;;;;;;9.90;6.00;;;;;;;6.41;63.69;97618.55;108445;1256;101232;-72
2023/06/04 00:33:49;;;;;;;13.20;5.70;;;;;;;6.35;63.80;97615.65;108443;1257;100030;-73
2023/06/04 00:36:17;;;;;;;9.90;6.00;;;;;;;6.22;63.85;97611.37;108484;1257;94731;-73
2023/06/04 00:38:45;;;;;;;10.00;5.30;;;;;;;6.12;64.14;97611.10;108488;1255;95809;-76
2023/06/04 00:41:14;;;;;;;9.60;5.10;;;;;;;6.12;64.34;97610.70;108483;1255;100873;-73
2023/06/04 00:43:45;;;;;;;9.10;5.20;;;;;;;6.12;64.45;97604.77;108437;1257;101436;-73
2023/06/04 00:46:18;;;;;;;8.20;5.50;;;;;;;6.12;64.48;97603.49;108474;1256;99758;-73
2023/06/04 00:48:45;;;;;;;;;;;;;;;6.12;64.51;97606.98;108240;1255;94407;-73
2023/06/04 00:51:14;;;;;;;8.20;5.30;;;;;;;6.03;64.54;97610.48;108463;1257;94635;-73
2023/06/04 00:53:45;;;;;;;9.50;4.90;;;;;;;5.99;64.70;97612.77;108465;1257;101919;-72
2023/06/04 00:56:13;;;;;;;9.00;5.80;;;;;;;5.99;64.81;97615.77;108495;1256;100528;-73
2023/06/04 00:58:42;;;;;;;7.90;4.80;;;;;;;5.98;64.88;97613.10;108447;1256;99852;-73
2023/06/04 01:01:42;;;;;;;8.60;5.70;;;;;;;5.97;64.78;97613.91;108440;1257;94272;-77
2023/06/04 01:04:19;;;;;;;8.80;5.60;;;;;;;5.92;64.81;97610.52;108062;1263;94517;-75
2023/06/04 01:06:51;;;;;;;10.60;6.00;;;;;;;5.90;64.82;97609.24;108106;1260;101915;-75
2023/06/04 01:09:20;;;;;;;11.20;5.40;;;;;;;5.87;64.76;97605.75;108193;1260;111463;-73
2023/06/04 01:11:48;;;;;;;8.20;5.10;;;;;;;5.84;64.84;97608.73;108145;1260;100101;-74
2023/06/04 01:14:18;;;;;;;8.40;4.50;;;;;;;5.83;64.97;97608.70;108133;1260;95206;-73
2023/06/04 01:17:01;;;;;;;8.20;5.10;;;;;;;5.82;65.00;97610.98;108247;1260;94368;-73
2023/06/04 01:20:00;;;;;;;9.40;4.80;;;;;;;5.77;65.09;97606.70;108175;1260;102343;-73
2023/06/04 01:22:43;;;;;;;8.50;4.50;;;;;;;5.74;65.24;97604.71;108150;1260;101293;-73
2023/06/04 01:25:23;;;;;;;8.50;4.70;;;;;;;5.71;65.16;97603.65;108151;1260;99902;-73
2023/06/04 01:27:55;;;;;;;6.80;4.30;;;;;;;5.61;65.17;97602.70;108127;1260;94294;-74
2023/06/04 01:30:42;;;;;;;8.90;4.80;;;;;;;5.58;65.20;97603.74;108164;1260;95340;-73
2023/06/04 01:33:12;;;;;;;6.10;4.70;;;;;;;5.55;65.29;97604.44;108026;1260;102293;-73
2023/06/04 01:35:40;;;;;;;7.10;5.20;;;;;;;5.52;65.42;97606.95;108185;1260;101371;-76
2023/06/04 01:38:09;;;;;;;6.80;4.80;;;;;;;5.51;65.47;97609.09;108019;1260;107192;-73
2023/06/04 01:40:37;;;;;;;8.30;5.00;;;;;;;5.50;65.64;97607.84;108187;1260;94378;-73
2023/06/04 01:43:05;;;;;;;9.90;5.60;;;;;;;5.52;65.68;97605.03;108455;1253;95590;-73
2023/06/04 01:45:34;;;;;;;7.90;5.10;;;;;;;5.51;65.60;97602.05;108712;1253;102335;-72
2023/06/04 01:48:04;;;;;;;9.10;5.30;;;;;;;5.48;65.69;97606.28;108536;1254;101311;-76
2023/06/04 01:50:33;;;;;;;6.50;5.00;;;;;;;5.47;65.67;97608.72;108678;1253;99959;-76
2023/06/04 01:53:01;;;;;;;7.30;4.70;;;;;;;5.44;65.69;97606.60;108710;1253;94717;-73
2023/06/04 01:55:33;;;;;;;11.20;4.90;;;;;;;5.41;65.78;97602.85;108763;1253;94559;-75
2023/06/04 01:58:01;;;;;;;8.70;4.90;;;;;;;5.40;65.79;97604.02;108775;1254;101907;-74
2023/06/04 02:00:30;;;;;;;9.40;5.40;;;;;;;5.36;65.80;97604.39;108709;1254;101496;-73
2023/06/04 02:02:59;;;;;;;7.90;5.00;;;;;;;5.33;65.83;97604.94;108680;1253;100334;-73
2023/06/04 02:05:27;;;;;;;7.70;5.20;;;;;;;5.27;65.92;97603.03;108514;1254;94686;-74
2023/06/04 02:07:57;;;;;;;13.00;5.50;;;;;;;5.25;65.96;97603.20;108702;1253;95077;-74
2023/06/04 02:10:25;;;;;;;7.60;5.50;;;;;;;5.26;65.97;97601.48;108667;1254;102386;-76
2023/06/04 02:12:56;;;;;;;8.50;5.60;;;;;;;5.25;66.02;97605.91;108728;1253;101535;-73
2023/06/04 02:15:26;;;;;;;10.70;5.20;;;;;;;5.23;66.06;97604.34;108667;1253;100026;-73
2023/06/04 02:17:58;;;;;;;8.30;5.00;;;;;;;5.22;66.14;97602.83;108600;1257;94222;-72
2023/06/04 02:20:28;;;;;;;9.30;5.60;;;;;;;5.20;66.12;97606.80;108358;1254;94559;-73
2023/06/04 02:22:56;;;;;;;6.30;4.60;;;;;;;5.17;66.21;97602.90;108345;1253;102085;-73
2023/06/04 02:25:25;;;;;;;10.10;5.10;;;;;;;5.13;66.24;97602.95;108732;1253;101433;-75
2023/06/04 02:27:53;;;;;;;9.00;5.00;;;;;;;5.10;66.30;97600.64;108673;1253;99754;-72
2023/06/04 02:30:21;;;;;;;7.40;4.80;;;;;;;5.08;66.35;97606.94;108726;1253;94230;-73
2023/06/04 02:32:50;;;;;;;8.10;4.90;;;;;;;5.07;66.41;97606.23;108356;1253;94538;-73
2023/06/04 02:35:18;;;;;;;8.50;5.00;;;;;;;5.04;66.39;97603.95;108705;1253;102060;-73
2023/06/04 02:37:46;;;;;;;9.90;5.00;;;;;;;5.04;66.46;97610.94;108728;1253;101733;-72
2023/06/04 02:40:14;;;;;;;7.60;4.40;;;;;;;5.03;66.47;97607.02;108716;1252;99960;-77
2023/06/04 02:42:42;;;;;;;10.00;5.50;;;;;;;4.98;66.42;97606.05;108696;1253;94203;-72
2023/06/04 02:45:12;;;;;;;8.00;4.30;;;;;;;4.86;66.34;97604.02;108739;1253;94508;-72
2023/06/04 02:47:40;;;;;;;7.80;5.10;;;;;;;4.79;66.57;97600.97;108710;1253;102149;-71
2023/06/04 02:50:09;;;;;;;12.20;5.50;;;;;;;4.79;66.77;97602.40;108770;1253;101406;-75
2023/06/04 02:52:37;;;;;;;11.50;5.10;;;;;;;4.80;66.98;97599.93;108746;1253;100064;-74
2023/06/04 02:55:07;;;;;;;11.60;5.90;;;;;;;4.81;66.98;97598.62;108684;1253;94436;-72
2023/06/04 02:57:36;;;;;;;8.20;5.50;;;;;;;4.82;67.10;97604.08;108148;1253;94613;-74
2023/06/04 03:00:11;;;;;;;7.00;5.30;;;;;;;4.86;67.20;97603.05;108773;1252;102259;-75
2023/06/04 03:02:42;;;;;;;7.70;5.20;;;;;;;4.89;67.23;97600.40;108763;1253;101217;-73
2023/06/04 03:05:12;;;;;;;9.30;4.90;;;;;;;4.89;67.20;97601.21;108718;1252;100123;-72
2023/06/04 03:07:44;;;;;;;10.40;4.60;;;;;;;4.90;67.17;97601.38;108715;1252;94477;-72
2023/06/04 03:10:14;;;;;;;9.90;4.40;;;;;;;4.85;67.19;97603.64;108682;1253;94233;-72
2023/06/04 03:12:42;;;;;;;7.90;4.60;;;;;;;4.84;67.38;97606.21;108730;1252;102225;-75
2023/06/04 03:15:11;;;;;;;7.30;5.00;;;;;;;4.86;67.43;97609.02;108725;1253;110019;-72
2023/06/04 03:17:39;;;;;;;11.20;5.60;;;;;;;4.88;67.39;97613.98;108703;1252;99745;-72
2023/06/04 03:20:08;;;;;;;9.60;4.70;;;;;;;4.88;67.43;97616.32;108694;1253;94163;-72
2023/06/04 03:22:37;;;;;;;6.60;5.30;;;;;;;4.88;67.50;97616.66;108770;1252;94426;-72
2023/06/04 03:25:06;;;;;;;13.00;5.70;;;;;;;4.90;67.56;97612.95;108762;1253;102229;-72
2023/06/04 03:27:34;;;;;;;12.80;5.30;;;;;;;4.92;67.59;97610.90;108676;1253;101584;-74
2023/06/04 03:30:03;;;;;;;10.50;6.30;;;;;;;4.93;67.61;97609.13;108702;1252;99610;-75
2023/06/04 03:32:31;;;;;;;11.40;6.80;;;;;;;4.96;67.69;97607.77;108708;1252;94295;-73
2023/06/04 03:34:59;;;;;;;19.30;8.90;;;;;;;4.99;67.83;97605.83;108533;1253;95272;-71
2023/06/04 03:37:27;;;;;;;20.10;9.10;;;;;;;5.01;67.87;97608.06;108756;1253;102301;-74
2023/06/04 03:39:55;;;;;;;18.00;8.80;;;;;;;5.02;67.87;97608.90;108320;1253;100460;-73
2023/06/04 03:42:23;;;;;;;15.60;9.30;;;;;;;5.03;67.95;97608.23;108439;1253;99231;-73
2023/06/04 03:44:51;;;;;;;19.90;8.80;;;;;;;5.04;68.02;97607.16;108694;1252;94306;-73
2023/06/04 03:47:19;;;;;;;12.60;8.80;;;;;;;5.06;68.10;97609.42;108398;1253;96064;-72
2023/06/04 03:49:47;;;;;;;18.80;10.60;;;;;;;5.11;68.18;97604.15;108617;1253;100771;-74
2023/06/04 03:52:15;;;;;;;22.20;12.50;;;;;;;5.14;68.26;97604.88;108423;1253;100814;-73
2023/06/04 03:54:43;;;;;;;18.40;12.10;;;;;;;5.16;68.25;97609.20;108682;1253;100552;-73
2023/06/04 03:57:11;;;;;;;19.90;11.40;;;;;;;5.19;68.27;97604.76;108487;1254;94284;-73
2023/06/04 03:59:39;;;;;;;20.60;11.00;;;;;;;5.23;68.35;97606.52;108699;1253;94647;-78
2023/06/04 04:02:07;;;;;;;18.30;9.80;;;;;;;5.26;68.45;97605.81;108726;1252;102561;-73
2023/06/04 04:04:36;;;;;;;19.10;10.40;;;;;;;5.30;68.58;97602.52;108730;1252;101191;-73
2023/06/04 04:07:04;;;;;;;17.80;10.90;;;;;;;5.34;68.70;97598.11;108696;1252;100024;-74
2023/06/04 04:09:32;;;;;;;14.80;9.40;;;;;;;5.38;68.73;97598.36;108681;1252;94224;-73
2023/06/04 04:12:00;;;;;;;15.70;10.00;;;;;;;5.41;68.78;97597.45;108729;1252;94405;-76
2023/06/04 04:14:28;;;;;;;14.00;9.00;;;;;;;5.44;68.78;97597.95;108756;1252;102109;-73
2023/06/04 04:16:56;;;;;;;16.70;8.90;;;;;;;5.48;68.79;97594.77;108763;1252;101137;-75
2023/06/04 04:19:24;;;;;;;14.20;8.90;;;;;;;5.50;68.88;97589.67;108473;1253;100051;-75
2023/06/04 04:21:52;;;;;;;16.00;8.40;;;;;;;5.54;68.93;97589.23;108682;1252;94478;-73
2023/06/04 04:24:28;;;;;;;11.30;6.70;;;;;;;5.59;69.00;97587.75;108518;1253;95226;-74
2023/06/04 04:26:58;;;;;;;10.20;5.90;;;;;;;5.64;69.11;97590.45;108738;1252;102157;-73
2023/06/04 04:29:27;;;;;;;12.10;6.20;;;;;;;5.69;69.20;97590.64;108730;1252;101131;-75
2023/06/04 04:31:56;;;;;;;11.30;6.10;;;;;;;5.75;69.24;97591.21;108674;1252;100205;-73
2023/06/04 04:34:27;;;;;;;10.90;5.40;;;;;;;5.82;69.23;97595.08;108717;1252;94218;-72
2023/06/04 04:36:56;;;;;;;8.80;4.60;;;;;;;5.88;69.28;97596.02;108345;1253;94669;-73
2023/06/04 04:39:25;;;;;;;7.40;5.10;;;;;;;5.94;69.26;97594.96;108735;1252;101939;-73
2023/06/04 04:41:55;;;;;;;6.10;4.10;;;;;;;6.00;69.33;97591.77;108734;1253;101649;-73
2023/06/04 04:44:23;;;;;;;6.90;4.70;;;;;;;6.06;69.32;97590.80;108695;1252;98891;-74
2023/06/04 04:46:58;;;;;;;6.10;4.90;;;;;;;6.13;69.33;97590.73;108663;1252;94181;-73
2023/06/04 04:49:26;;;;;;;6.70;4.40;;;;;;;6.21;69.37;97592.04;108729;1252;94676;-73
2023/06/04 04:51:54;;;;;;;7.60;4.50;;;;;;;6.28;69.34;97593.35;108526;1253;102372;-73
2023/06/04 04:54:22;;;;;;;9.70;4.20;;;;;;;6.35;69.41;97592.27;108497;1253;101180;-74
2023/06/04 04:56:50;;;;;;;8.50;4.50;;;;;;;6.44;69.36;97590.34;108677;1252;99957;-75
2023/06/04 04:59:18;;;;;;;9.00;4.70;;;;;;;6.53;69.30;97592.83;108725;1253;94181;-75
2023/06/04 05:01:46;;;;;;;6.90;4.60;;;;;;;6.62;69.27;97594.27;108685;1253;94605;-72
2023/06/04 05:04:14;;;;;;;5.10;3.80;;;;;;;6.71;69.23;97593.91;108733;1252;101624;-74
2023/06/04 05:06:42;;;;;;;8.70;4.50;;;;;;;6.80;69.21;97595.39;108696;1253;101468;-73
2023/06/04 05:09:10;;;;;;;7.00;4.30;;;;;;;6.91;69.16;97597.90;108721;1253;99858;-71
2023/06/04 05:11:38;;;;;;;7.70;4.20;;;;;;;7.01;69.26;97598.00;108311;1257;94255;-73
2023/06/04 05:14:06;;;;;;;7.40;4.10;;;;;;;7.11;69.12;97600.52;108312;1253;95189;-73
2023/06/04 05:16:36;;;;;;;5.60;4.20;;;;;;;7.20;69.02;97596.95;108770;1253;101995;-73
2023/06/04 05:19:04;;;;;;;5.60;3.60;;;;;;;7.29;68.80;97595.52;108752;1253;101641;-72
2023/06/04 05:21:36;;;;;;;6.20;3.80;;;;;;;7.38;68.86;97593.84;108659;1253;100024;-76
2023/06/04 05:24:05;;;;;;;7.50;3.70;;;;;;;7.48;68.86;97590.77;108735;1253;94519;-73
2023/06/04 05:26:33;;;;;;;7.50;4.30;;;;;;;7.59;68.78;97587.47;108746;1253;94687;-77
2023/06/04 05:29:01;;;;;;;6.40;3.60;;;;;;;7.70;68.88;97582.35;108698;1253;102131;-75
2023/06/04 05:31:29;;;;;;;6.50;4.40;;;;;;;7.82;68.94;97582.48;108752;1253;101278;-75
2023/06/04 05:33:57;;;;;;;6.30;3.90;;;;;;;7.94;68.81;97586.84;108700;1253;99914;-75
2023/06/04 05:36:25;;;;;;;8.60;3.80;;;;;;;8.05;68.47;97583.40;108689;1253;94414;-76
2023/06/04 05:38:57;;;;;;;7.90;4.10;;;;;;;8.16;68.39;97584.14;108710;1253;94731;-77
2023/06/04 05:41:25;;;;;;;7.60;3.70;;;;;;;8.27;68.13;97585.98;108752;1253;102481;-73
2023/06/04 05:43:54;;;;;;;9.30;3.90;;;;;;;8.38;68.06;97583.58;108711;1253;101474;-73
2023/06/04 05:46:22;;;;;;;6.80;3.90;;;;;;;8.50;67.89;97580.55;108499;1253;100811;-78
2023/06/04 05:48:50;;;;;;;6.10;3.60;;;;;;;8.62;67.65;97584.59;108697;1253;94268;-72
2023/06/04 05:51:19;;;;;;;7.60;3.80;;;;;;;8.75;67.58;97583.86;108723;1253;94745;-73
2023/06/04 05:53:47;;;;;;;8.10;3.80;;;;;;;8.88;67.39;97586.28;108750;1253;102142;-76
2023/06/04 05:56:16;;;;;;;9.50;3.70;;;;;;;9.00;67.03;97585.96;108714;1252;100524;-73
2023/06/04 05:58:44;;;;;;;7.60;3.50;;;;;;;9.14;66.52;97585.45;108681;1253;99866;-72
2023/06/04 06:01:12;;;;;;;7.70;3.60;;;;;;;9.28;66.38;97582.20;108732;1253;94607;-73
2023/06/04 06:03:40;;;;;;;8.70;4.10;;;;;;;9.41;66.68;97578.88;108712;1253;94532;-72
2023/06/04 06:06:10;;;;;;;6.50;3.50;;;;;;;9.54;66.47;97578.70;108739;1253;101805;-76
2023/06/04 06:08:38;;;;;;;5.90;3.00;;;;;;;9.67;66.22;97577.34;108657;1253;101330;-73
2023/06/04 06:11:07;;;;;;;4.40;3.40;;;;;;;9.81;65.85;97578.23;108638;1253;99876;-75
2023/06/04 06:13:35;;;;;;;8.20;4.00;;;;;;;9.95;65.68;97574.25;108373;1252;94274;-72
2023/06/04 06:16:03;;;;;;;4.90;3.80;;;;;;;10.08;65.31;97573.34;108758;1253;94742;-74
2023/06/04 06:18:31;;;;;;;6.90;3.20;;;;;;;10.23;64.80;97573.39;108722;1253;102318;-74
2023/06/04 06:20:59;;;;;;;5.60;3.20;;;;;;;10.38;64.50;97574.40;108698;1253;101112;-75
2023/06/04 06:23:27;;;;;;;7.30;3.40;;;;;;;10.52;64.29;97573.55;108699;1253;99912;-72
2023/06/04 06:25:56;;;;;;;4.60;3.10;;;;;;;10.66;64.22;97570.98;108696;1253;94628;-73
2023/06/04 06:28:24;;;;;;;6.30;3.80;;;;;;;10.81;64.24;97567.73;108725;1253;95247;-77
2023/06/04 06:30:52;;;;;;;7.00;3.60;;;;;;;11.02;64.64;97567.37;108755;1253;102291;-73
2023/06/04 06:33:21;;;;;;;7.90;3.50;;;;;;;11.24;64.63;97564.63;108374;1253;101297;-79
2023/06/04 06:35:49;;;;;;;6.30;3.50;;;;;;;11.42;64.24;97564.16;108496;1253;99310;-73
2023/06/04 06:38:17;;;;;;;5.20;3.60;;;;;;;11.58;63.97;97557.16;108689;1253;94611;-74
2023/06/04 06:40:45;;;;;;;7.00;3.70;;;;;;;11.71;63.67;97558.64;108661;1253;94683;-74
2023/06/04 06:43:16;;;;;;;5.60;3.10;;;;;;;11.85;63.39;97559.23;108731;1253;101550;-73
2023/06/04 06:45:44;;;;;;;5.00;3.50;;;;;;;12.01;63.33;97560.00;108749;1252;101325;-74
2023/06/04 06:48:12;;;;;;;5.00;3.30;;;;;;;12.15;63.00;97559.70;108322;1254;99941;-78
2023/06/04 06:50:40;;;;;;;7.50;4.00;;;;;;;12.33;63.03;97561.26;108677;1253;94161;-72
2023/06/04 06:53:08;;;;;;;5.20;3.30;;;;;;;12.54;62.77;97566.14;108708;1253;95062;-73
2023/06/04 06:55:36;;;;;;;6.20;3.00;;;;;;;12.69;62.04;97562.89;108730;1255;102192;-73
2023/06/04 06:58:09;;;;;;;8.20;2.80;;;;;;;12.81;61.41;97562.25;108684;1253;100127;-73
2023/06/04 07:00:37;;;;;;;4.90;3.30;;;;;;;12.93;60.70;97565.56;108363;1253;99887;-73
2023/06/04 07:03:05;;;;;;;5.60;2.80;;;;;;;13.05;60.40;97565.11;108679;1252;94200;-75
2023/06/04 07:05:33;;;;;;;6.50;2.90;;;;;;;13.16;60.13;97562.86;108385;1253;94747;-73
2023/06/04 07:08:02;;;;;;;4.80;2.50;;;;;;;13.30;59.43;97560.10;108408;1253;102427;-77
2023/06/04 07:10:31;;;;;;;5.60;3.50;;;;;;;13.45;59.01;97562.04;108700;1253;109826;-73
2023/06/04 07:12:59;;;;;;;6.60;3.10;;;;;;;13.59;58.92;97560.90;108652;1253;108410;-74
2023/06/04 07:15:27;;;;;;;3.80;2.50;;;;;;;13.73;58.28;97557.77;108722;1252;94317;-78
2023/06/04 07:17:55;;;;;;;6.00;2.30;;;;;;;13.85;57.35;97559.16;108647;1253;94275;-73
2023/06/04 07:20:23;;;;;;;3.30;2.40;;;;;;;13.98;57.01;97556.52;108744;1252;102171;-73
2023/06/04 07:22:51;;;;;;;5.60;2.30;;;;;;;14.13;57.03;97555.86;108529;1253;101287;-73
2023/06/04 07:25:23;;;;;;;5.70;2.10;;;;;;;14.34;56.80;97552.77;108706;1252;100124;-73
2023/06/04 07:27:51;;;;;;;;;;;;;;;14.55;56.47;97553.08;108501;1253;94359;-73
2023/06/04 07:30:20;;;;;;;5.80;1.90;;;;;;;14.69;55.53;97554.85;108768;1252;94799;-77
2023/06/04 07:32:49;;;;;;;5.00;2.50;;;;;;;14.85;55.07;97553.06;108700;1252;102274;-72
2023/06/04 07:35:18;;;;;;;4.40;2.00;;;;;;;15.02;54.10;97551.95;108793;1252;99713;-72
2023/06/04 07:37:47;;;;;;;4.80;2.00;;;;;;;15.16;53.37;97550.07;108740;1253;99962;-73
2023/06/04 07:40:16;;;;;;;4.30;2.70;;;;;;;15.32;53.38;97547.77;108740;1253;95072;-73
2023/06/04 07:42:46;;;;;;;2.50;1.60;;;;;;;15.50;52.57;97552.45;108461;1253;201196;-73
2023/06/04 07:45:16;;;;;;;3.00;1.90;;;;;;;15.65;51.90;97550.53;108785;1252;102184;-76
2023/06/04 07:47:44;;;;;;;2.80;1.70;;;;;;;15.84;52.42;97542.73;108656;1253;100117;-73
2023/06/04 07:50:12;;;;;;;2.90;1.70;;;;;;;16.17;52.77;97544.92;108723;1252;99472;-75
2023/06/04 07:52:40;;;;;;;3.80;1.70;;;;;;;16.55;51.95;97539.90;108510;1253;94357;-77
2023/06/04 07:55:09;;;;;;;2.90;1.80;;;;;;;16.97;51.48;97538.10;108716;1252;95164;-77
2023/06/04 07:57:38;;;;;;;3.30;1.40;;;;;;;17.51;50.48;97535.20;108737;1253;101903;-77
2023/06/04 08:00:08;;;;;;;2.30;1.50;;;;;;;18.08;49.56;97538.12;108719;1252;100998;-72
2023/06/04 08:02:36;;;;;;;3.20;1.90;;;;;;;18.67;48.55;97540.98;108571;1253;99836;-74
2023/06/04 08:05:05;;;;;;;3.80;1.60;;;;;;;19.12;47.18;97538.14;108406;1254;94532;-71
2023/06/04 08:07:33;;;;;;;4.70;1.40;;;;;;;19.65;46.58;97539.14;108724;1252;94309;-72
2023/06/04 08:10:01;;;;;;;3.70;1.90;;;;;;;20.24;46.32;97540.71;108709;1253;102434;-72
2023/06/04 08:12:29;;;;;;;2.70;1.70;;;;;;;20.80;45.91;97540.49;108720;1252;101264;-72
2023/06/04 08:14:57;;;;;;;7.10;1.50;;;;;;;21.37;44.39;97540.81;108738;1253;99482;-71
2023/06/04 08:17:25;;;;;;;2.50;1.70;;;;;;;21.80;43.46;97537.75;108680;1253;95017;-71
2023/06/04 08:19:54;;;;;;;2.00;1.50;;;;;;;22.15;42.71;97534.88;108701;1253;94830;-73
2023/06/04 08:22:22;;;;;;;2.20;1.50;;;;;;;22.54;41.59;97534.72;108431;1252;101198;-72
2023/06/04 08:24:50;;;;;;;1.90;1.70;;;;;;;22.93;40.61;97533.15;108738;1252;101558;-73
2023/06/04 08:27:18;;;;;;;4.80;1.80;;;;;;;23.25;39.49;97536.55;108719;1253;100213;-71
2023/06/04 08:29:46;;;;;;;2.50;1.70;;;;;;;23.58;39.44;97535.66;108775;1252;94320;-72
2023/06/04 08:32:15;;;;;;;3.40;1.60;;;;;;;23.88;38.29;97534.92;108807;1252;94284;-76
2023/06/04 08:34:43;;;;;;;3.10;1.60;;;;;;;24.20;37.88;97534.44;108493;1253;101254;-72
2023/06/04 08:37:11;;;;;;;3.90;1.70;;;;;;;24.50;37.42;97533.43;108748;1252;101224;-71
2023/06/04 08:39:39;;;;;;;2.50;1.40;;;;;;;24.90;37.12;97533.83;108726;1252;99920;-72
2023/06/04 08:42:20;;;;;;;3.00;1.90;;;;;;;25.36;36.15;97535.34;108533;1253;94310;-73
2023/06/04 08:44:52;;;;;;;5.00;1.90;;;;;;;25.80;35.18;97538.14;108725;1252;94248;-78
2023/06/04 08:47:23;;;;;;;3.20;1.70;;;;;;;26.16;34.42;97532.48;108775;1252;102332;-76
2023/06/04 08:49:52;;;;;;;1.60;1.40;;;;;;;26.43;34.54;97535.75;108757;1252;101640;-72
2023/06/04 08:52:21;;;;;;;4.60;1.70;;;;;;;26.81;34.24;97537.39;108745;1252;100154;-77
2023/06/04 08:54:51;;;;;;;3.30;1.80;;;;;;;27.23;33.65;97537.14;108771;1253;94205;-72
2023/06/04 08:57:20;;;;;;;2.60;1.70;;;;;;;27.52;32.55;97535.98;108729;1254;94999;-74
2023/06/04 08:59:48;;;;;;;2.20;1.70;;;;;;;27.72;32.95;97534.71;108744;1252;101923;-73
2023/06/04 09:02:17;;;;;;;4.20;2.10;;;;;;;27.98;32.31;97533.42;108441;1252;101349;-72
2023/06/04 09:04:52;;;;;;;3.50;1.90;;;;;;;28.14;31.92;97531.89;108715;1252;99456;-73
2023/06/04 09:07:20;;;;;;;7.10;2.10;;;;;;;28.42;31.87;97529.23;108398;1253;94313;-74
2023/06/04 09:09:51;;;;;;;2.60;2.10;;;;;;;28.56;31.05;97532.04;108737;1253;94582;-77
2023/06/04 09:12:25;;;;;;;2.20;1.50;;;;;;;28.73;30.40;97527.28;108730;1253;102215;-73
2023/06/04 09:14:53;;;;;;;7.50;2.00;;;;;;;28.94;30.23;97532.09;108798;1253;101462;-74
2023/06/04 09:17:27;;;;;;;2.60;1.70;;;;;;;29.14;29.80;97536.48;108717;1253;99847;-73
2023/06/04 09:19:55;;;;;;;2.90;1.90;;;;;;;29.13;29.14;97538.34;108719;1255;94474;-77
2023/06/04 09:22:33;;;;;;;2.10;1.70;;;;;;;29.14;29.92;97535.60;108729;1253;94309;-75
2023/06/04 09:25:05;;;;;;;2.50;2.10;;;;;;;29.40;29.87;97542.52;108755;1253;101990;-77
2023/06/04 09:27:49;;;;;;;3.60;1.80;;;;;;;29.65;29.45;97541.97;108697;1253;101880;-73
2023/06/04 09:30:18;;;;;;;2.90;2.20;;;;;;;29.76;29.09;97542.10;108312;1253;100043;-78
2023/06/04 09:32:46;;;;;;;3.90;2.10;;;;;;;29.82;28.65;97540.45;108712;1252;94454;-72
2023/06/04 09:35:19;;;;;;;3.50;1.80;;;;;;;29.81;28.22;97541.28;108632;1254;94495;-73
2023/06/04 09:37:57;;;;;;;2.80;1.90;;;;;;;29.85;28.49;97543.38;108785;1255;102195;-72
2023/06/04 09:40:26;;;;;;;2.80;2.00;;;;;;;29.95;27.88;97539.10;108814;1252;101323;-73
2023/06/04 09:42:57;;;;;;;3.00;2.20;;;;;;;29.87;27.85;97539.23;108694;1252;99992;-73
2023/06/04 09:45:31;;;;;;;3.70;1.90;;;;;;;29.81;27.27;97537.21;108700;1251;94449;-73
2023/06/04 09:48:00;;;;;;;3.70;2.20;;;;;;;29.66;27.09;97533.20;108758;1252;94310;-72
2023/06/04 09:50:31;;;;;;;3.80;1.80;;;;;;;29.55;27.00;97535.42;108775;1252;101855;-73
2023/06/04 09:53:01;;;;;;;3.20;1.90;;;;;;;29.48;26.85;97532.86;108798;1253;101023;-75
2023/06/04 09:55:30;;;;;;;4.30;1.90;;;;;;;29.49;26.61;97533.57;108755;1252;99943;-75
2023/06/04 09:58:00;;;;;;;5.90;2.30;;;;;;;29.54;26.92;97534.81;108766;1252;94330;-75
2023/06/04 10:00:29;;;;;;;7.40;1.80;;;;;;;29.65;27.24;97532.20;108736;1253;94384;-76
2023/06/04 10:02:59;;;;;;;4.90;2.10;;;;;;;29.70;27.22;97531.23;108799;1253;102182;-73
2023/06/04 10:05:30;;;;;;;4.50;2.40;;;;;;;29.72;27.10;97532.41;108746;1253;101265;-74
2023/06/04 10:08:02;;;;;;;3.80;1.70;;;;;;;29.65;26.42;97531.33;108787;1252;99456;-74
2023/06/04 10:10:30;;;;;;;;;;;;;;;29.55;26.43;97530.81;108756;1253;95750;-73
2023/06/04 10:13:08;;;;;;;4.10;1.90;;;;;;;29.49;26.24;97532.82;108510;1251;94607;-77
2023/06/04 10:15:43;;;;;;;4.80;1.80;;;;;;;29.46;26.34;97533.75;108810;1251;101722;-73
2023/06/04 10:18:12;;;;;;;5.10;1.70;;;;;;;29.46;26.17;97532.95;108398;1256;101331;-73
